Time;durP1;ratioP1;P1;durP2;ratioP2;P2;SDS_P1;SDS_P2;PMS_P1;PMS_P2;Temp;Humidity;BMP_temperature;BMP_pressure;BME280_temperature;BME280_humidity;BME280_pressure;Samples;Min_cycle;Max_cycle;Signal;HPM_P1;HPM_P2
2022/08/30 00:02:26;;;;;;;13.43;6.25;;;;;;;16.54;100.00;101953.88;5274892;28;20103;-73
2022/08/30 00:05:00;;;;;;;17.48;6.53;;;;;;;16.52;100.00;101953.22;5290512;28;20099;-73
2022/08/30 00:07:30;;;;;;;13.50;6.25;;;;;;;16.48;100.00;101949.19;5278053;28;20037;-74
2022/08/30 00:10:01;;;;;;;14.00;6.82;;;;;;;16.48;100.00;101945.63;5280110;28;20076;-73
2022/08/30 00:12:32;;;;;;;15.55;6.65;;;;;;;16.47;100.00;101955.63;5284346;28;20051;-73
2022/08/30 00:15:04;;;;;;;15.68;6.45;;;;;;;16.45;100.00;101944.09;5286177;28;20099;-72
2022/08/30 00:17:35;;;;;;;15.50;6.05;;;;;;;16.45;100.00;101954.09;5289860;28;20031;-72
2022/08/30 00:20:09;;;;;;;12.55;6.05;;;;;;;16.45;100.00;101944.09;5276010;28;20435;-72
2022/08/30 00:22:40;;;;;;;15.73;7.20;;;;;;;16.46;100.00;101940.38;5278201;28;20043;-73
2022/08/30 00:25:11;;;;;;;15.23;7.15;;;;;;;16.47;100.00;101944.78;5287098;28;20023;-72
2022/08/30 00:27:42;;;;;;;17.00;6.55;;;;;;;16.48;100.00;101945.63;5279872;28;20453;-73
2022/08/30 00:30:14;;;;;;;16.10;6.80;;;;;;;16.46;100.00;101951.22;5280158;28;20031;-73
2022/08/30 00:32:46;;;;;;;15.90;7.20;;;;;;;16.44;100.00;101953.25;5283191;28;20036;-73
2022/08/30 00:35:19;;;;;;;12.95;6.50;;;;;;;16.46;100.00;101955.78;5287887;28;20038;-73
2022/08/30 00:37:50;;;;;;;16.55;6.57;;;;;;;16.51;100.00;101964.22;5271048;28;20039;-73
2022/08/30 00:40:21;;;;;;;17.65;6.10;;;;;;;16.55;100.00;101960.97;5266671;28;20020;-73
2022/08/30 00:42:52;;;;;;;14.85;6.65;;;;;;;16.62;100.00;101962.97;5280711;28;20023;-73
2022/08/30 00:45:27;;;;;;;12.55;5.72;;;;;;;16.66;100.00;101964.28;5278513;28;20027;-73
2022/08/30 00:47:59;;;;;;;15.80;7.43;;;;;;;16.69;100.00;101964.78;5274050;28;20069;-74
2022/08/30 00:50:35;;;;;;;20.27;7.68;;;;;;;16.73;100.00;101968.88;5287865;28;20031;-73
2022/08/30 00:53:09;;;;;;;12.45;6.43;;;;;;;16.76;100.00;101970.34;5287452;28;20034;-74
2022/08/30 00:55:42;;;;;;;14.02;6.25;;;;;;;16.78;100.00;101966.47;5273390;28;20504;-74
2022/08/30 00:58:20;;;;;;;10.13;5.22;;;;;;;16.89;100.00;101969.78;5277162;28;20031;-74
2022/08/30 01:00:54;;;;;;;13.15;6.22;;;;;;;16.88;100.00;101965.38;5280286;28;20389;-74
2022/08/30 01:03:25;;;;;;;20.70;6.50;;;;;;;16.87;100.00;101963.66;5280297;28;20019;-74
2022/08/30 01:05:57;;;;;;;19.05;6.95;;;;;;;16.85;100.00;101957.59;5266288;28;20026;-73
2022/08/30 01:08:28;;;;;;;16.00;6.53;;;;;;;16.79;100.00;101959.19;5267656;28;20026;-74
2022/08/30 01:11:02;;;;;;;16.05;6.90;;;;;;;16.70;100.00;101958.34;5287646;28;20032;-74
2022/08/30 01:13:35;;;;;;;16.88;7.07;;;;;;;16.65;100.00;101960.75;5287474;28;20023;-74
2022/08/30 01:16:06;;;;;;;13.15;6.53;;;;;;;16.61;100.00;101964.84;5276072;28;20027;-74
2022/08/30 01:18:38;;;;;;;20.00;7.15;;;;;;;16.60;100.00;101963.16;5279788;28;20022;-74
2022/08/30 01:21:25;;;;;;;18.77;6.65;;;;;;;16.58;100.00;101960.63;5278795;28;20024;-74
2022/08/30 01:23:57;;;;;;;14.48;7.10;;;;;;;16.57;100.00;101958.94;5265991;28;20027;-74
2022/08/30 01:26:29;;;;;;;12.35;6.30;;;;;;;16.55;100.00;101954.72;5282120;28;20065;-74
2022/08/30 01:29:05;;;;;;;17.70;7.72;;;;;;;16.55;100.00;101954.72;5287143;28;20024;-73
2022/08/30 01:31:36;;;;;;;17.80;7.13;;;;;;;16.52;100.00;101952.38;5281674;28;20028;-74
2022/08/30 01:34:07;;;;;;;19.55;7.65;;;;;;;16.50;100.00;101951.69;5260714;28;20546;-76
2022/08/30 01:36:41;;;;;;;17.73;7.25;;;;;;;16.51;100.00;101950.69;5273558;28;20034;-76
2022/08/30 01:39:15;;;;;;;15.07;5.97;;;;;;;16.50;100.00;101952.53;5286863;28;20027;-75
2022/08/30 01:41:48;;;;;;;18.23;8.05;;;;;;;16.48;100.00;101949.19;5287074;28;20055;-75
2022/08/30 01:44:18;;;;;;;13.68;6.47;;;;;;;16.46;100.00;101956.63;5272868;28;20110;-75
2022/08/30 01:46:49;;;;;;;24.05;7.90;;;;;;;16.47;100.00;101955.63;5287946;28;20035;-75
2022/08/30 01:49:20;;;;;;;12.40;6.70;;;;;;;16.50;100.00;101951.69;5268139;28;20027;-75
2022/08/30 01:51:50;;;;;;;15.30;6.85;;;;;;;16.51;100.00;101948.81;5286780;28;20043;-74
2022/08/30 01:54:21;;;;;;;15.05;7.38;;;;;;;16.54;100.00;101948.47;5286001;28;20173;-74
2022/08/30 01:56:52;;;;;;;16.77;7.53;;;;;;;16.56;100.00;101948.28;5286912;28;20023;-77
2022/08/30 01:59:23;;;;;;;17.60;7.47;;;;;;;16.58;100.00;101948.94;5285947;28;20027;-76
2022/08/30 02:01:54;;;;;;;18.83;7.75;;;;;;;16.61;100.00;101953.16;5286746;28;20388;-76
2022/08/30 02:04:26;;;;;;;18.98;8.10;;;;;;;16.63;100.00;101951.13;5286179;28;20431;-76
2022/08/30 02:07:04;;;;;;;19.73;7.20;;;;;;;16.66;100.00;101953.47;5282858;28;20050;-75
2022/08/30 02:09:36;;;;;;;14.25;6.65;;;;;;;16.67;100.00;101947.88;5265666;28;20107;-74
2022/08/30 02:12:07;;;;;;;15.73;7.63;;;;;;;16.69;100.00;101947.69;5253108;28;20027;-75
2022/08/30 02:14:38;;;;;;;18.15;7.47;;;;;;;16.68;100.00;101946.84;5286407;28;20110;-74
2022/08/30 02:17:11;;;;;;;24.48;7.53;;;;;;;16.65;100.00;101940.94;5272988;28;20023;-75
2022/08/30 02:19:43;;;;;;;20.80;6.35;;;;;;;16.61;100.00;101942.31;5286367;28;20024;-75
2022/08/30 02:22:15;;;;;;;19.23;7.35;;;;;;;16.54;100.00;101934.91;5286402;28;20032;-75
2022/08/30 02:24:46;;;;;;;17.67;7.15;;;;;;;16.48;100.00;101932.09;5272005;28;20561;-75
2022/08/30 02:27:17;;;;;;;17.38;7.13;;;;;;;16.41;100.00;101937.34;5286534;28;20023;-74
2022/08/30 02:29:47;;;;;;;16.65;7.43;;;;;;;16.34;100.00;101930.13;5281896;28;20016;-74
2022/08/30 02:32:18;;;;;;;18.42;6.70;;;;;;;16.28;100.00;101937.09;5277740;28;20023;-74
2022/08/30 02:34:48;;;;;;;15.30;7.13;;;;;;;16.23;100.00;101931.38;5285605;28;20023;-73
2022/08/30 02:37:19;;;;;;;14.48;6.72;;;;;;;16.17;100.00;101927.53;5272856;28;20388;-74
2022/08/30 02:39:49;;;;;;;16.05;7.55;;;;;;;16.13;100.00;101928.88;5285992;28;20024;-74
2022/08/30 02:42:20;;;;;;;18.75;7.63;;;;;;;16.10;100.00;101928.38;5272656;28;20035;-74
2022/08/30 02:44:50;;;;;;;15.32;7.28;;;;;;;16.06;100.00;101922.47;5285733;28;20032;-74
2022/08/30 02:47:21;;;;;;;15.10;7.05;;;;;;;16.02;100.00;101922.00;5286596;28;20461;-74
2022/08/30 02:49:52;;;;;;;15.98;7.72;;;;;;;15.98;100.00;101926.06;5286152;28;20481;-75
2022/08/30 02:52:22;;;;;;;17.40;6.97;;;;;;;15.95;100.00;101928.28;5272102;28;20499;-72
2022/08/30 02:54:54;;;;;;;20.23;7.65;;;;;;;15.92;100.00;101920.53;5285610;28;20032;-72
2022/08/30 02:57:25;;;;;;;13.13;6.60;;;;;;;15.91;100.00;101913.41;5286208;28;20024;-72
2022/08/30 02:59:55;;;;;;;17.60;7.72;;;;;;;15.88;100.00;101911.91;5273506;28;20091;-72
2022/08/30 03:02:27;;;;;;;18.55;8.05;;;;;;;15.87;100.00;101907.53;5278494;28;20020;-72
2022/08/30 03:04:57;;;;;;;16.80;7.38;;;;;;;15.87;100.00;101909.41;5278046;28;20139;-72
2022/08/30 03:07:28;;;;;;;19.05;7.82;;;;;;;15.88;100.00;101909.22;5273252;28;20103;-72
2022/08/30 03:09:59;;;;;;;16.13;6.80;;;;;;;15.89;100.00;101907.34;5284403;28;20035;-73
2022/08/30 03:12:31;;;;;;;16.30;7.47;;;;;;;15.89;100.00;101900.06;5277951;28;20020;-72
2022/08/30 03:15:04;;;;;;;24.65;8.15;;;;;;;15.88;100.00;101901.09;5273857;28;20372;-74
2022/08/30 03:17:35;;;;;;;15.15;7.45;;;;;;;15.86;100.00;101911.22;5268891;28;20093;-72
2022/08/30 03:20:06;;;;;;;16.08;7.25;;;;;;;15.84;100.00;101907.88;5286952;28;20027;-73
2022/08/30 03:22:38;;;;;;;22.83;8.35;;;;;;;15.82;100.00;101914.50;5289468;28;20795;-72
2022/08/30 03:25:08;;;;;;;19.25;8.35;;;;;;;15.76;100.00;101918.72;5282675;28;20055;-72
2022/08/30 03:27:39;;;;;;;17.20;7.38;;;;;;;15.73;100.00;101914.50;5281415;28;20480;-72
2022/08/30 03:30:11;;;;;;;16.17;8.23;;;;;;;15.70;100.00;101912.13;5289096;28;20022;-72
2022/08/30 03:32:41;;;;;;;19.00;8.65;;;;;;;15.68;100.00;101913.34;5269890;28;20020;-73
2022/08/30 03:35:13;;;;;;;21.92;8.32;;;;;;;15.63;100.00;101908.44;5282111;28;20408;-73
2022/08/30 03:37:45;;;;;;;19.67;8.70;;;;;;;15.60;100.00;101916.03;5290080;28;20032;-72
2022/08/30 03:40:18;;;;;;;14.65;8.95;;;;;;;15.54;100.00;101917.56;5278602;28;20029;-72
2022/08/30 03:42:49;;;;;;;18.40;8.00;;;;;;;15.54;100.00;101917.56;5287038;28;20263;-72
2022/08/30 03:45:19;;;;;;;15.68;8.18;;;;;;;15.52;100.00;101920.44;5288869;28;20028;-72
2022/08/30 03:47:50;;;;;;;18.63;7.97;;;;;;;15.52;100.00;101914.19;5288918;28;20024;-72
2022/08/30 03:50:20;;;;;;;17.67;8.90;;;;;;;15.50;100.00;101908.94;5270561;28;20031;-71
2022/08/30 03:52:51;;;;;;;16.73;8.30;;;;;;;15.50;100.00;101910.81;5268403;28;20020;-72
2022/08/30 03:55:22;;;;;;;15.88;9.00;;;;;;;15.50;100.00;101918.91;5281031;28;20492;-72
2022/08/30 03:57:53;;;;;;;20.08;8.50;;;;;;;15.51;100.00;101912.50;5276495;28;20026;-72
2022/08/30 04:00:23;;;;;;;20.20;9.20;;;;;;;15.52;100.00;101908.78;5267791;28;20476;-72
2022/08/30 04:02:54;;;;;;;22.67;9.60;;;;;;;15.54;100.00;101915.69;5278231;28;20038;-72
2022/08/30 04:05:26;;;;;;;15.20;8.15;;;;;;;15.58;100.00;101913.50;5284347;28;20392;-72
2022/08/30 04:07:56;;;;;;;17.38;8.38;;;;;;;15.62;100.00;101916.72;5267809;28;20053;-72
2022/08/30 04:10:29;;;;;;;18.65;8.02;;;;;;;15.65;100.00;101914.50;5281450;28;20062;-72
2022/08/30 04:13:00;;;;;;;17.63;8.38;;;;;;;15.68;100.00;101911.47;5280757;28;20029;-71
2022/08/30 04:15:30;;;;;;;17.95;8.93;;;;;;;15.72;100.00;101926.34;5288025;28;20027;-72
2022/08/30 04:18:01;;;;;;;18.88;8.10;;;;;;;15.76;100.00;101916.00;5288485;28;20034;-71
2022/08/30 04:20:31;;;;;;;13.85;8.20;;;;;;;15.80;100.00;101915.47;5280202;28;20111;-72
2022/08/30 04:23:05;;;;;;;15.43;7.93;;;;;;;15.84;100.00;101920.56;5282515;28;20068;-71
2022/08/30 04:25:38;;;;;;;17.40;7.35;;;;;;;15.85;100.00;101928.47;5287716;28;20030;-72
2022/08/30 04:28:09;;;;;;;16.48;7.82;;;;;;;15.84;100.00;101923.25;5288217;28;20029;-72
2022/08/30 04:30:42;;;;;;;19.02;8.23;;;;;;;15.82;100.00;101928.84;5276661;28;20064;-72
2022/08/30 04:33:15;;;;;;;14.02;8.50;;;;;;;15.78;100.00;101931.06;5281328;28;20020;-72
2022/08/30 04:35:48;;;;;;;14.77;8.80;;;;;;;15.77;100.00;101928.53;5284167;28;20066;-71
2022/08/30 04:38:18;;;;;;;13.18;8.63;;;;;;;15.76;100.00;101926.81;5288210;28;20084;-72
2022/08/30 04:40:49;;;;;;;18.23;8.85;;;;;;;15.77;100.00;101918.56;5288147;28;20019;-72
2022/08/30 04:43:19;;;;;;;16.85;8.68;;;;;;;15.78;100.00;101925.66;5288091;28;20030;-71
2022/08/30 04:45:51;;;;;;;20.25;8.65;;;;;;;15.79;100.00;101927.31;5287589;28;20031;-71
2022/08/30 04:48:22;;;;;;;19.00;8.52;;;;;;;15.79;100.00;101935.44;5287652;28;20027;-71
2022/08/30 04:50:53;;;;;;;18.33;8.40;;;;;;;15.78;100.00;101930.22;5287796;28;20426;-72
2022/08/30 04:53:23;;;;;;;18.00;9.05;;;;;;;15.80;100.00;101928.16;5276646;28;20024;-72
2022/08/30 04:55:53;;;;;;;20.45;8.82;;;;;;;15.79;100.00;101931.91;5280093;28;20492;-72
2022/08/30 04:58:24;;;;;;;17.15;8.73;;;;;;;15.79;100.00;101935.44;5279350;28;20062;-73
2022/08/30 05:00:55;;;;;;;21.52;8.73;;;;;;;15.80;100.00;101928.16;5273707;28;20024;-72
2022/08/30 05:03:25;;;;;;;18.60;8.38;;;;;;;15.81;100.00;101935.25;5273685;28;20385;-72
2022/08/30 05:05:56;;;;;;;18.75;9.30;;;;;;;15.84;100.00;101937.63;5255443;28;20031;-72
2022/08/30 05:08:26;;;;;;;21.02;9.52;;;;;;;15.88;100.00;101943.53;5273498;28;20035;-72
2022/08/30 05:10:57;;;;;;;20.23;9.60;;;;;;;15.93;100.00;101947.41;5278977;28;20119;-72
2022/08/30 05:13:27;;;;;;;22.50;9.05;;;;;;;15.99;100.00;101948.56;5282261;28;20027;-73
2022/08/30 05:15:59;;;;;;;16.08;9.02;;;;;;;16.02;100.00;101948.22;5277388;28;20056;-73
2022/08/30 05:18:29;;;;;;;20.70;9.48;;;;;;;16.06;100.00;101949.53;5251976;28;20513;-72
2022/08/30 05:21:21;;;;;;;20.20;9.18;;;;;;;16.07;100.00;101951.25;5287325;28;20054;-72
2022/08/30 05:23:54;;;;;;;19.75;9.27;;;;;;;16.09;100.00;101951.91;5265808;28;20453;-72
2022/08/30 05:26:28;;;;;;;19.13;9.75;;;;;;;16.11;100.00;101946.31;5281946;28;20459;-72
2022/08/30 05:28:59;;;;;;;13.95;8.77;;;;;;;16.13;100.00;101949.72;5286946;28;20023;-72
2022/08/30 05:31:33;;;;;;;25.67;9.40;;;;;;;16.15;100.00;101951.19;5287111;28;20084;-72
2022/08/30 05:34:04;;;;;;;19.17;9.68;;;;;;;16.17;100.00;101951.06;5285677;28;20065;-72
2022/08/30 05:36:36;;;;;;;16.95;9.25;;;;;;;16.17;100.00;101949.19;5272828;28;20031;-73
2022/08/30 05:39:09;;;;;;;21.20;10.05;;;;;;;16.20;100.00;101959.63;5273502;28;20497;-72
2022/08/30 05:41:39;;;;;;;17.65;9.57;;;;;;;16.22;100.00;101960.31;5286972;28;20531;-72
2022/08/30 05:44:10;;;;;;;18.42;9.02;;;;;;;16.26;100.00;101966.22;5272746;28;21533;-72
2022/08/30 05:46:44;;;;;;;17.48;9.38;;;;;;;16.27;100.00;101968.75;5286621;28;20550;-72
2022/08/30 05:49:15;;;;;;;19.75;8.98;;;;;;;16.28;100.00;101965.03;5273007;28;20023;-72
2022/08/30 05:51:46;;;;;;;19.73;9.68;;;;;;;16.35;100.00;101964.31;5286843;28;20030;-72
2022/08/30 05:54:16;;;;;;;20.23;9.40;;;;;;;16.41;100.00;101959.03;5279970;28;20024;-73
2022/08/30 05:56:47;;;;;;;19.02;9.77;;;;;;;16.48;100.00;101960.00;5279552;28;20030;-70
2022/08/30 05:59:17;;;;;;;16.08;9.30;;;;;;;16.55;100.00;101957.44;5272624;28;20019;-70
2022/08/30 06:01:48;;;;;;;16.80;9.00;;;;;;;16.64;100.00;101950.94;5273027;28;20032;-70
2022/08/30 06:04:18;;;;;;;20.98;9.63;;;;;;;16.85;100.00;101946.75;5277904;28;20027;-70
2022/08/30 06:06:49;;;;;;;19.30;9.30;;;;;;;17.04;100.00;101951.69;5281319;28;20106;-70
2022/08/30 06:09:19;;;;;;;20.00;8.60;;;;;;;17.36;100.00;101950.56;5286559;28;20031;-71
2022/08/30 06:11:50;;;;;;;20.40;9.63;;;;;;;17.73;100.00;101952.44;5268049;28;20451;-71
2022/08/30 06:14:21;;;;;;;23.45;10.32;;;;;;;18.00;100.00;101953.63;5286214;28;20028;-70
2022/08/30 06:16:52;;;;;;;18.85;9.27;;;;;;;18.16;100.00;101959.88;5272862;28;20035;-70
2022/08/30 06:19:23;;;;;;;24.63;9.40;;;;;;;18.32;100.00;101952.38;5273516;28;20104;-70
2022/08/30 06:21:53;;;;;;;17.52;10.05;;;;;;;18.84;100.00;101948.59;5265497;28;20474;-71
2022/08/30 06:24:24;;;;;;;19.98;9.07;;;;;;;19.39;100.00;101946.97;5277804;28;20530;-71
2022/08/30 06:26:55;;;;;;;14.27;8.45;;;;;;;19.71;100.00;101944.69;5265458;28;20032;-71
2022/08/30 06:29:25;;;;;;;18.10;8.80;;;;;;;19.80;100.00;101948.09;5283655;28;20022;-71
2022/08/30 06:31:57;;;;;;;20.17;9.45;;;;;;;19.75;100.00;101953.31;5277618;28;20023;-71
2022/08/30 06:34:28;;;;;;;15.65;9.43;;;;;;;19.73;100.00;101947.22;5271179;28;20485;-71
2022/08/30 06:36:58;;;;;;;18.50;8.90;;;;;;;19.81;100.00;101942.44;5286167;28;20019;-70
2022/08/30 06:39:29;;;;;;;15.98;9.93;;;;;;;19.80;100.00;101950.81;5282044;28;20024;-70
2022/08/30 06:41:59;;;;;;;14.65;8.93;;;;;;;19.79;100.00;101946.44;5265381;28;20382;-71
2022/08/30 06:44:30;;;;;;;19.48;9.32;;;;;;;19.79;100.00;101951.88;5269704;28;20492;-71
2022/08/30 06:47:00;;;;;;;15.05;8.77;;;;;;;19.63;100.00;101944.88;5276291;28;20059;-71
2022/08/30 06:49:31;;;;;;;15.45;9.23;;;;;;;19.57;100.00;101946.44;5282661;28;20565;-71
2022/08/30 06:52:02;;;;;;;17.70;9.45;;;;;;;19.50;100.00;101955.63;5283052;28;20366;-71
2022/08/30 06:54:32;;;;;;;15.52;9.55;;;;;;;19.40;100.00;101958.69;5289402;28;20038;-71
2022/08/30 06:57:03;;;;;;;17.05;9.30;;;;;;;19.23;100.00;101951.84;5274777;28;20051;-71
2022/08/30 06:59:33;;;;;;;19.13;9.85;;;;;;;19.20;100.00;101949.53;5268686;28;20468;-71
2022/08/30 07:02:05;;;;;;;14.63;9.45;;;;;;;19.23;100.00;101949.13;5271870;28;20082;-71
2022/08/30 07:04:37;;;;;;;20.00;9.93;;;;;;;19.28;100.00;101952.97;5278891;28;20060;-71
2022/08/30 07:07:09;;;;;;;15.32;9.20;;;;;;;19.48;100.00;101947.66;5287272;28;20023;-71
2022/08/30 07:09:42;;;;;;;20.73;9.38;;;;;;;19.67;100.00;101957.00;5289846;28;20042;-71
2022/08/30 07:12:14;;;;;;;18.55;9.25;;;;;;;19.82;100.00;101952.28;5290015;28;20103;-72
2022/08/30 07:14:44;;;;;;;19.95;9.10;;;;;;;20.03;100.00;101955.97;5275206;28;20177;-71
2022/08/30 07:20:07;;;;;;;19.60;9.55;;;;;;;20.18;100.00;101956.66;5282144;28;20031;-72
2022/08/30 07:22:37;;;;;;;15.05;9.07;;;;;;;20.32;100.00;101955.69;5281163;28;20024;-72
2022/08/30 07:25:08;;;;;;;18.88;8.60;;;;;;;20.33;100.00;101962.84;5282902;28;20020;-72
2022/08/30 07:27:39;;;;;;;17.90;8.82;;;;;;;20.37;100.00;101964.09;5264964;28;20022;-72
2022/08/30 07:30:10;;;;;;;17.45;8.15;;;;;;;20.48;100.00;101962.69;5282412;28;20106;-72
2022/08/30 07:32:40;;;;;;;15.60;8.82;;;;;;;20.66;100.00;101957.50;5288338;28;20061;-72
2022/08/30 07:35:11;;;;;;;15.90;9.27;;;;;;;20.89;100.00;101954.41;5271622;28;20074;-72
2022/08/30 07:37:41;;;;;;;14.65;9.10;;;;;;;21.21;100.00;101951.91;5282140;28;20329;-72
2022/08/30 07:40:12;;;;;;;15.27;8.05;;;;;;;21.52;100.00;101964.09;5278024;28;20031;-71
2022/08/30 07:42:43;;;;;;;21.90;8.30;;;;;;;21.72;100.00;101964.91;5289202;28;20020;-73
2022/08/30 07:45:13;;;;;;;12.30;8.35;;;;;;;21.95;100.00;101964.44;5289086;28;20034;-72
2022/08/30 07:47:44;;;;;;;15.70;10.10;;;;;;;22.10;100.00;101965.00;5269884;28;20024;-72
2022/08/30 07:50:15;;;;;;;17.77;9.60;;;;;;;22.08;100.00;101969.00;5268005;28;20034;-72
2022/08/30 07:52:45;;;;;;;14.13;8.70;;;;;;;21.98;100.00;101970.28;5274172;28;20102;-72
2022/08/30 07:55:16;;;;;;;25.48;10.40;;;;;;;21.99;100.00;101968.41;5288031;28;20039;-72
2022/08/30 07:57:46;;;;;;;19.42;8.15;;;;;;;21.95;100.00;101959.81;5267237;28;20024;-72
2022/08/30 08:00:17;;;;;;;14.82;8.07;;;;;;;22.10;100.00;101962.28;5282618;28;20050;-73
2022/08/30 08:02:47;;;;;;;17.38;8.15;;;;;;;22.37;100.00;101973.13;5280422;28;20017;-72
2022/08/30 08:05:18;;;;;;;14.55;7.35;;;;;;;22.38;100.00;101972.06;5266737;28;20032;-73
2022/08/30 08:07:48;;;;;;;13.93;7.00;;;;;;;22.46;100.00;101966.34;5267761;28;20032;-72
2022/08/30 08:10:19;;;;;;;14.45;7.20;;;;;;;22.54;100.00;101968.00;5271399;28;20034;-73
2022/08/30 08:12:49;;;;;;;15.98;7.82;;;;;;;22.81;100.00;101957.75;5277399;28;20115;-73
2022/08/30 08:15:20;;;;;;;13.32;7.40;;;;;;;22.95;100.00;101959.38;5262422;28;20102;-73
2022/08/30 08:17:50;;;;;;;18.27;7.43;;;;;;;23.26;100.00;101963.97;5279958;28;20065;-73
2022/08/30 08:20:21;;;;;;;13.77;7.07;;;;;;;23.63;100.00;101967.63;5268262;28;20016;-73
2022/08/30 08:22:52;;;;;;;13.23;6.78;;;;;;;23.99;100.00;101960.50;5280553;28;20035;-73
2022/08/30 08:25:23;;;;;;;14.15;6.32;;;;;;;24.36;100.00;101961.34;5266548;28;20028;-73
2022/08/30 08:27:54;;;;;;;15.55;6.38;;;;;;;24.70;100.00;101961.72;5282620;28;20020;-73
2022/08/30 08:30:24;;;;;;;11.77;6.85;;;;;;;24.73;100.00;101961.25;5278621;28;20024;-73
2022/08/30 08:32:55;;;;;;;14.00;6.65;;;;;;;24.67;100.00;101959.47;5270427;28;20050;-72
2022/08/30 08:35:26;;;;;;;14.68;6.72;;;;;;;24.75;100.00;101964.59;5277080;28;20024;-73
2022/08/30 08:37:57;;;;;;;10.30;6.35;;;;;;;24.97;100.00;101960.25;5267160;28;20016;-73
2022/08/30 08:40:33;;;;;;;10.20;6.13;;;;;;;25.28;100.00;101958.31;5266808;28;20028;-73
2022/08/30 08:43:11;;;;;;;16.92;6.30;;;;;;;25.49;100.00;101960.47;5287130;28;20035;-73
2022/08/30 08:46:04;;;;;;;18.98;6.20;;;;;;;25.63;100.00;101965.72;5271844;28;20023;-73
2022/08/30 08:48:50;;;;;;;11.10;6.07;;;;;;;25.76;100.00;101973.75;5266551;28;20439;-73
2022/08/30 08:54:37;;;;;;;10.80;5.70;;;;;;;26.30;100.00;101974.34;5279605;28;20036;-73
2022/08/30 08:57:09;;;;;;;10.77;5.25;;;;;;;26.31;98.39;101974.13;5280240;28;20027;-73
2022/08/30 08:59:42;;;;;;;16.23;5.47;;;;;;;26.52;98.70;101969.88;5266305;28;20114;-73
2022/08/30 09:02:25;;;;;;;13.82;5.10;;;;;;;26.67;97.62;101969.34;5266541;28;20020;-73
2022/08/30 09:05:00;;;;;;;8.45;4.97;;;;;;;26.36;95.41;101965.13;5265926;28;20028;-73
2022/08/30 09:07:35;;;;;;;;;;;;;;;26.19;97.90;101964.22;5280831;28;20055;-73
2022/08/30 09:10:06;;;;;;;12.38;5.15;;;;;;;26.06;99.19;101966.19;5281456;28;20339;-73
2022/08/30 09:12:37;;;;;;;12.82;4.75;;;;;;;26.32;98.18;101970.28;5278908;28;20362;-73
2022/08/30 09:15:31;;;;;;;12.02;4.75;;;;;;;26.80;97.09;101959.91;5281425;28;20023;-73
2022/08/30 09:18:05;;;;;;;13.77;5.32;;;;;;;26.77;91.33;101953.00;5273945;28;20032;-73
2022/08/30 09:20:42;;;;;;;8.00;4.13;;;;;;;26.47;92.61;101958.78;5274091;28;20384;-73
2022/08/30 09:23:12;;;;;;;10.57;4.95;;;;;;;26.76;94.45;101950.53;5271077;28;20028;-73
2022/08/30 09:26:04;;;;;;;10.80;4.40;;;;;;;27.07;91.53;101960.13;5275246;28;20114;-73
2022/08/30 09:28:53;;;;;;;9.77;4.60;;;;;;;27.14;87.54;101954.50;5277488;28;20023;-73
2022/08/30 09:31:26;;;;;;;12.43;4.93;;;;;;;27.14;91.02;101954.50;5282963;28;20362;-73
2022/08/30 09:34:28;;;;;;;10.30;4.50;;;;;;;27.07;91.55;101951.88;5268254;28;20489;-73
2022/08/30 09:36:59;;;;;;;10.05;4.68;;;;;;;26.99;87.47;101961.38;5258095;28;20030;-73
2022/08/30 09:39:33;;;;;;;13.30;4.45;;;;;;;26.99;89.57;101955.88;5269432;28;20032;-73
2022/08/30 09:42:22;;;;;;;11.27;4.57;;;;;;;27.23;88.29;101950.22;5266682;28;20107;-74
2022/08/30 09:45:09;;;;;;;12.65;4.65;;;;;;;26.75;88.55;101954.31;5274206;28;20026;-73
2022/08/30 09:47:42;;;;;;;13.25;4.00;;;;;;;26.69;90.10;101956.16;5274505;28;20039;-73
2022/08/30 09:50:31;;;;;;;10.77;4.50;;;;;;;26.77;88.04;101961.28;5274755;28;20546;-73
2022/08/30 09:53:13;;;;;;;10.95;4.13;;;;;;;26.78;87.11;101948.34;5274578;28;20099;-73
2022/08/30 09:56:06;;;;;;;12.80;4.78;;;;;;;27.04;89.02;101949.59;5286206;28;20024;-73
2022/08/30 09:59:00;;;;;;;11.18;3.70;;;;;;;27.14;87.02;101947.06;5286422;28;20020;-73
2022/08/30 10:01:47;;;;;;;8.95;4.22;;;;;;;27.18;86.75;101939.97;5286648;28;20073;-73
2022/08/30 10:04:52;;;;;;;9.32;3.33;;;;;;;27.34;85.97;101941.88;5278166;28;20028;-73
2022/08/30 10:07:33;;;;;;;11.30;4.00;;;;;;;26.90;82.64;101938.06;5264831;28;20032;-73
2022/08/30 10:10:26;;;;;;;10.20;3.60;;;;;;;26.91;85.12;101933.41;5249447;28;20039;-73
2022/08/30 10:13:12;;;;;;;14.52;3.78;;;;;;;26.86;83.72;101934.19;5286752;28;20065;-73
2022/08/30 10:15:56;;;;;;;7.60;3.47;;;;;;;26.69;84.41;101933.31;5272441;28;20497;-73
2022/08/30 10:18:39;;;;;;;11.05;3.88;;;;;;;26.66;84.95;101933.78;5282250;28;20545;-73
2022/08/30 10:21:15;;;;;;;13.38;3.83;;;;;;;26.57;84.53;101928.69;5262386;28;20031;-73
2022/08/30 10:23:52;;;;;;;10.13;3.50;;;;;;;26.53;84.52;101929.44;5290380;28;20027;-74
2022/08/30 10:26:36;;;;;;;10.60;3.97;;;;;;;26.34;84.67;101932.34;5288292;28;20033;-73
2022/08/30 10:29:13;;;;;;;8.80;3.60;;;;;;;26.31;86.58;101932.88;5285766;28;20024;-73
2022/08/30 10:31:48;;;;;;;12.55;3.47;;;;;;;26.38;87.57;101935.47;5290900;28;20027;-73
2022/08/30 10:34:25;;;;;;;12.23;4.25;;;;;;;26.50;88.52;101932.69;5280522;28;20019;-73
2022/08/30 10:37:03;;;;;;;11.43;2.95;;;;;;;26.66;84.13;101942.03;5290692;28;20039;-73
2022/08/30 10:39:41;;;;;;;15.05;3.83;;;;;;;26.66;82.85;101937.41;5276913;28;20404;-73
2022/08/30 10:42:20;;;;;;;7.63;3.22;;;;;;;26.72;82.80;101932.81;5277498;28;20132;-73
2022/08/30 10:45:00;;;;;;;11.13;3.63;;;;;;;26.67;81.29;101928.06;5276261;28;20385;-73
2022/08/30 10:47:36;;;;;;;7.50;3.70;;;;;;;26.70;81.12;101933.06;5290825;28;20411;-73
2022/08/30 10:50:14;;;;;;;10.77;3.83;;;;;;;26.72;82.12;101932.81;5278613;28;20039;-73
2022/08/30 10:52:53;;;;;;;6.22;3.53;;;;;;;26.90;82.97;101913.31;5289955;28;20107;-73
2022/08/30 10:55:29;;;;;;;9.43;3.60;;;;;;;26.91;80.00;101917.75;5289297;28;20032;-73
2022/08/30 10:58:01;;;;;;;11.57;3.80;;;;;;;26.80;80.14;101921.38;5280763;28;20032;-73
2022/08/30 11:00:49;;;;;;;10.68;4.20;;;;;;;26.84;80.98;101925.31;5268940;28;20035;-73
2022/08/30 11:03:39;;;;;;;11.55;3.70;;;;;;;26.79;80.75;101908.72;5269084;28;20032;-73
2022/08/30 11:06:46;;;;;;;14.40;3.60;;;;;;;27.09;78.50;101917.50;5268398;28;20047;-73
2022/08/30 11:09:40;;;;;;;15.68;4.68;;;;;;;26.87;79.69;101908.31;5268852;28;20032;-73
2022/08/30 11:12:29;;;;;;;8.80;4.15;;;;;;;26.91;81.80;101911.38;5288768;28;20047;-73
2022/08/30 11:15:13;;;;;;;12.80;4.22;;;;;;;27.19;82.43;101908.56;5275123;28;20032;-73
2022/08/30 11:18:13;;;;;;;8.90;4.05;;;;;;;27.18;79.60;101895.91;5278293;28;20024;-73
2022/08/30 11:20:46;;;;;;;8.95;3.78;;;;;;;27.24;77.39;101894.06;5278238;28;20024;-73
2022/08/30 11:23:17;;;;;;;8.93;3.45;;;;;;;27.01;78.61;101904.16;5272454;28;20516;-73
2022/08/30 11:26:08;;;;;;;11.82;3.70;;;;;;;26.82;78.31;101899.97;5267984;28;20137;-73
2022/08/30 11:28:38;;;;;;;9.73;3.30;;;;;;;26.91;78.17;101905.88;5280057;28;20055;-73
2022/08/30 11:31:19;;;;;;;15.27;3.25;;;;;;;27.23;76.16;101908.91;5287137;28;20031;-74
2022/08/30 11:33:54;;;;;;;13.15;3.20;;;;;;;27.40;73.04;101915.22;5279636;28;20123;-73
2022/08/30 11:36:40;;;;;;;10.05;3.78;;;;;;;27.56;76.12;101903.34;5289246;28;20028;-73
2022/08/30 11:39:49;;;;;;;13.57;3.53;;;;;;;27.60;74.99;101901.72;5274548;28;20035;-73
2022/08/30 11:42:54;;;;;;;8.27;3.28;;;;;;;27.81;75.83;101902.03;5268344;28;20070;-73
2022/08/30 11:45:26;;;;;;;11.35;3.30;;;;;;;28.11;73.25;101905.19;5280745;28;20027;-73
2022/08/30 11:48:00;;;;;;;6.07;2.97;;;;;;;27.89;71.00;101898.84;5268206;28;20416;-73
2022/08/30 11:50:45;;;;;;;4.95;2.60;;;;;;;27.59;72.12;101896.47;5268323;28;20496;-73